sensor_id;sensor_type;location;lat;lon;timestamp;P1;P2;P0
77354;PMS7003;66422;51.202;19.936;2023-08-17T00:07:33;21.00;19.00;15.00
77354;PMS7003;66422;51.202;19.936;2023-08-17T00:38:13;19.00;16.00;11.00
77354;PMS7003;66422;51.202;19.936;2023-08-17T00:53:33;21.00;20.00;14.00
77354;PMS7003;66422;51.202;19.936;2023-08-17T01:39:37;36.00;34.00;24.00
77354;PMS7003;66422;51.202;19.936;2023-08-17T03:11:37;30.00;27.50;21.00
77354;PMS7003;66422;51.202;19.936;2023-08-17T03:26:57;27.50;27.50;21.50
77354;PMS7003;66422;51.202;19.936;2023-08-17T03:42:18;31.50;28.50;22.00
77354;PMS7003;66422;51.202;19.936;2023-08-17T04:12:58;31.00;24.00;18.00
77354;PMS7003;66422;51.202;19.936;2023-08-17T04:28:17;39.00;32.00;22.00
77354;PMS7003;66422;51.202;19.936;2023-08-17T04:43:38;27.00;23.00;18.00
77354;PMS7003;66422;51.202;19.936;2023-08-17T05:14:17;35.00;26.50;20.50
77354;PMS7003;66422;51.202;19.936;2023-08-17T05:29:37;33.00;27.00;21.00
77354;PMS7003;66422;51.202;19.936;2023-08-17T05:44:57;30.00;26.00;20.00
77354;PMS7003;66422;51.202;19.936;2023-08-17T06:00:17;34.00;31.00;21.00
77354;PMS7003;66422;51.202;19.936;2023-08-17T06:15:38;33.00;30.50;23.00
77354;PMS7003;66422;51.202;19.936;2023-08-17T06:30:58;42.00;36.00;24.00
77354;PMS7003;66422;51.202;19.936;2023-08-17T06:46:18;39.00;33.00;22.00
77354;PMS7003;66422;51.202;19.936;2023-08-17T07:16:58;36.00;31.00;21.00
77354;PMS7003;66422;51.202;19.936;2023-08-17T07:32:18;31.00;30.00;20.00
77354;PMS7003;66422;51.202;19.936;2023-08-17T07:47:38;32.00;30.00;22.00
77354;PMS7003;66422;51.202;19.936;2023-08-17T08:02:58;30.00;26.00;19.00
77354;PMS7003;66422;51.202;19.936;2023-08-17T08:33:37;41.00;34.00;24.00
77354;PMS7003;66422;51.202;19.936;2023-08-17T09:04:18;38.00;32.00;23.00
77354;PMS7003;66422;51.202;19.936;2023-08-17T09:19:39;36.50;34.50;24.50
77354;PMS7003;66422;51.202;19.936;2023-08-17T09:35:02;27.50;26.50;19.50
77354;PMS7003;66422;51.202;19.936;2023-08-17T10:36:51;30.00;28.00;21.00
77354;PMS7003;66422;51.202;19.936;2023-08-17T10:52:14;33.00;27.00;21.00
77354;PMS7003;66422;51.202;19.936;2023-08-17T11:07:47;32.00;32.00;22.00
77354;PMS7003;66422;51.202;19.936;2023-08-17T11:53:50;28.00;24.00;19.00
77354;PMS7003;66422;51.202;19.936;2023-08-17T12:24:37;19.00;18.00;14.00
77354;PMS7003;66422;51.202;19.936;2023-08-17T12:39:56;15.50;14.50;12.50
77354;PMS7003;66422;51.202;19.936;2023-08-17T12:55:24;11.50;11.50;9.50
77354;PMS7003;66422;51.202;19.936;2023-08-17T13:10:45;16.00;16.00;14.00
77354;PMS7003;66422;51.202;19.936;2023-08-17T13:26:04;14.50;12.50;11.00
77354;PMS7003;66422;51.202;19.936;2023-08-17T13:41:23;9.50;9.50;8.00
77354;PMS7003;66422;51.202;19.936;2023-08-17T13:56:44;12.50;11.50;9.00
77354;PMS7003;66422;51.202;19.936;2023-08-17T14:12:08;9.00;9.00;7.00
77354;PMS7003;66422;51.202;19.936;2023-08-17T14:27:36;9.00;8.00;7.00
77354;PMS7003;66422;51.202;19.936;2023-08-17T14:42:56;10.00;9.00;8.00
77354;PMS7003;66422;51.202;19.936;2023-08-17T14:58:15;14.00;14.00;11.00
77354;PMS7003;66422;51.202;19.936;2023-08-17T15:13:35;10.00;10.00;8.00
77354;PMS7003;66422;51.202;19.936;2023-08-17T15:28:54;9.00;9.00;7.00
77354;PMS7003;66422;51.202;19.936;2023-08-17T15:59:34;12.00;10.00;8.00
77354;PMS7003;66422;51.202;19.936;2023-08-17T16:15:01;11.50;11.50;9.50
77354;PMS7003;66422;51.202;19.936;2023-08-17T16:30:20;17.50;16.00;12.50
77354;PMS7003;66422;51.202;19.936;2023-08-17T16:45:40;10.50;10.50;7.50
77354;PMS7003;66422;51.202;19.936;2023-08-17T17:01:07;13.00;10.00;8.00
77354;PMS7003;66422;51.202;19.936;2023-08-17T17:16:26;20.50;20.50;15.00
77354;PMS7003;66422;51.202;19.936;2023-08-17T17:31:46;14.00;13.00;10.00
77354;PMS7003;66422;51.202;19.936;2023-08-17T17:47:06;19.00;16.00;13.00
77354;PMS7003;66422;51.202;19.936;2023-08-17T18:02:26;22.00;16.00;12.00
77354;PMS7003;66422;51.202;19.936;2023-08-17T18:17:45;20.00;18.00;13.00
77354;PMS7003;66422;51.202;19.936;2023-08-17T19:19:03;20.50;17.50;12.50
77354;PMS7003;66422;51.202;19.936;2023-08-17T19:49:43;23.00;20.50;13.50
77354;PMS7003;66422;51.202;19.936;2023-08-17T20:05:03;22.00;22.00;16.00
77354;PMS7003;66422;51.202;19.936;2023-08-17T20:20:24;24.00;22.50;17.50
77354;PMS7003;66422;51.202;19.936;2023-08-17T20:35:44;29.00;25.00;19.00
77354;PMS7003;66422;51.202;19.936;2023-08-17T20:51:09;28.00;26.00;18.00
77354;PMS7003;66422;51.202;19.936;2023-08-17T21:21:49;23.00;20.00;14.00
77354;PMS7003;66422;51.202;19.936;2023-08-17T21:37:08;22.00;22.00;18.00
77354;PMS7003;66422;51.202;19.936;2023-08-17T21:52:28;24.00;20.00;15.00
77354;PMS7003;66422;51.202;19.936;2023-08-17T22:07:48;25.00;22.00;18.00
77354;PMS7003;66422;51.202;19.936;2023-08-17T22:23:07;24.00;23.00;16.00
77354;PMS7003;66422;51.202;19.936;2023-08-17T22:38:26;24.00;18.50;14.00
77354;PMS7003;66422;51.202;19.936;2023-08-17T22:53:46;21.00;19.00;13.50
77354;PMS7003;66422;51.202;19.936;2023-08-17T23:09:06;45.00;35.50;26.50
77354;PMS7003;66422;51.202;19.936;2023-08-17T23:24:25;21.50;20.50;16.50
77354;PMS7003;66422;51.202;19.936;2023-08-17T23:55:04;27.00;24.00;19.00
